Time;durP1;ratioP1;P1;durP2;ratioP2;P2;SDS_P1;SDS_P2;PMS_P1;PMS_P2;Temp;Humidity;BMP_temperature;BMP_pressure;BME280_temperature;BME280_humidity;BME280_pressure;Samples;Min_cycle;Max_cycle;Signal;HPM_P1;HPM_P2
2022/03/12 00:01:16;;;;;;;2.60;2.40;;;4.20;40.30;3.30;98408.00;;;;5135136;28;20197;-75
2022/03/12 00:03:43;;;;;;;2.53;2.33;;;4.20;40.20;3.40;98409.00;;;;5135075;28;20571;-75
2022/03/12 00:06:10;;;;;;;7.00;2.83;;;4.10;40.80;3.40;98418.00;;;;5135183;28;20288;-76
2022/03/12 00:08:42;;;;;;;1.93;1.83;;;4.10;41.50;3.40;98416.00;;;;5134955;28;20220;-75
2022/03/12 00:11:14;;;;;;;2.13;1.97;;;4.10;41.30;3.20;98428.00;;;;5135009;28;20264;-75
2022/03/12 00:13:42;;;;;;;2.67;2.47;;;4.10;41.10;3.30;98428.00;;;;5134860;28;20628;-76
2022/03/12 00:16:13;;;;;;;4.07;2.67;;;4.00;41.30;3.40;98433.00;;;;5134762;28;20217;-76
2022/03/12 00:18:42;;;;;;;3.07;2.80;;;4.10;41.40;3.50;98433.00;;;;5134894;28;20667;-76
2022/03/12 00:21:11;;;;;;;2.40;2.20;;;4.10;41.80;3.10;98439.00;;;;5134823;28;20291;-76
2022/03/12 00:23:37;;;;;;;1.70;1.60;;;4.00;42.50;3.20;98428.00;;;;5134906;28;20221;-76
2022/03/12 00:26:04;;;;;;;3.13;2.53;;;4.10;42.40;3.30;98436.00;;;;5134676;28;20330;-75
2022/03/12 00:28:32;;;;;;;2.80;2.60;;;4.00;41.70;3.20;98427.00;;;;5134612;28;20617;-76
2022/03/12 00:30:58;;;;;;;2.07;1.97;;;4.00;41.90;3.20;98434.00;;;;5134773;28;20206;-76
2022/03/12 00:33:25;;;;;;;1.90;1.80;;;4.00;42.00;3.10;98441.00;;;;5134531;28;20224;-76
2022/03/12 00:35:54;;;;;;;1.83;1.73;;;3.90;42.00;3.10;98444.00;;;;5134583;28;20285;-75
2022/03/12 00:38:22;;;;;;;3.17;2.13;;;4.00;42.20;3.20;98440.00;;;;5134636;28;20536;-75
2022/03/12 00:40:50;;;;;;;4.00;2.40;;;4.00;41.90;3.20;98428.00;;;;5134462;28;20204;-75
2022/03/12 00:43:18;;;;;;;1.43;1.33;;;3.90;41.90;3.30;98422.00;;;;5134566;28;20232;-75
2022/03/12 00:45:48;;;;;;;3.97;3.30;;;4.00;42.10;3.20;98417.00;;;;5116448;28;20209;-77
2022/03/12 00:48:16;;;;;;;3.63;3.03;;;4.10;42.20;3.20;98421.00;;;;5137081;27;20205;-77
2022/03/12 00:50:42;;;;;;;2.33;2.13;;;4.10;42.70;3.30;98424.00;;;;5138240;28;20530;-75
2022/03/12 00:53:11;;;;;;;1.87;1.77;;;4.10;42.40;3.30;98429.00;;;;5137999;28;20213;-76
2022/03/12 00:55:38;;;;;;;2.97;1.90;;;4.10;42.40;3.40;98375.00;;;;5138004;28;20235;-75
2022/03/12 00:58:07;;;;;;;3.00;2.80;;;4.10;42.10;3.40;98417.00;;;;5138031;28;20673;-74
2022/03/12 01:00:34;;;;;;;4.00;2.07;;;4.20;41.80;3.50;98422.00;;;;5137821;28;20197;-75
2022/03/12 01:03:02;;;;;;;2.10;2.00;;;4.30;42.20;3.60;98428.00;;;;5137771;28;20227;-76
2022/03/12 01:05:52;;;;;;;1.70;1.60;;;4.30;41.70;3.70;98424.00;;;;5137807;28;20196;-75
2022/03/12 01:08:20;;;;;;;2.67;2.47;;;4.40;41.20;3.60;98424.00;;;;5137632;28;20235;-76
2022/03/12 01:10:47;;;;;;;7.07;2.77;;;4.40;40.60;3.60;98419.00;;;;5137731;28;20198;-75
2022/03/12 01:13:17;;;;;;;2.87;2.67;;;4.50;41.20;3.60;98430.00;;;;5137643;28;20221;-74
2022/03/12 01:15:44;;;;;;;3.50;2.53;;;4.40;41.40;3.60;98417.00;;;;5137561;28;20221;-75
2022/03/12 01:18:15;;;;;;;5.40;2.13;;;4.40;41.30;3.60;98405.00;;;;5137609;28;20194;-75
2022/03/12 01:20:42;;;;;;;2.00;1.77;;;4.40;41.70;3.70;98421.00;;;;5137645;28;20236;-74
2022/03/12 01:23:10;;;;;;;2.07;1.87;;;4.50;41.30;3.70;98416.00;;;;5137558;28;20510;-76
2022/03/12 01:25:37;;;;;;;2.90;2.60;;;4.50;40.80;3.80;98419.00;;;;5137424;28;20193;-76
2022/03/12 01:28:04;;;;;;;1.87;1.73;;;4.50;40.70;3.80;98429.00;;;;5137185;28;20620;-76
2022/03/12 01:30:32;;;;;;;1.40;1.33;;;4.60;40.90;3.80;98424.00;;;;5137519;28;20190;-76
2022/03/12 01:32:59;;;;;;;1.63;1.50;;;4.60;41.70;3.90;98422.00;;;;5137361;28;20250;-76
2022/03/12 01:35:26;;;;;;;1.90;1.80;;;4.60;40.60;3.90;98422.00;;;;5137340;28;20242;-76
2022/03/12 01:37:53;;;;;;;3.17;2.87;;;4.70;40.40;4.10;98425.00;;;;5137375;28;20201;-76
2022/03/12 01:40:20;;;;;;;0.97;0.97;;;4.70;41.20;3.90;98430.00;;;;5137479;28;20248;-76
2022/03/12 01:42:48;;;;;;;1.33;1.23;;;4.70;40.00;3.90;98426.00;;;;5119005;28;20261;-76
2022/03/12 01:45:27;;;;;;;2.30;2.07;;;4.70;40.10;3.90;98435.00;;;;5137154;28;20201;-76
2022/03/12 01:47:55;;;;;;;2.20;2.07;;;4.60;39.50;4.00;98432.00;;;;5137001;28;20211;-74
2022/03/12 01:50:25;;;;;;;2.20;2.10;;;4.70;39.70;3.90;98422.00;;;;5137177;28;20655;-75
2022/03/12 01:52:58;;;;;;;1.90;1.77;;;4.70;39.50;4.00;98432.00;;;;5137122;28;20205;-76
2022/03/12 01:55:27;;;;;;;1.43;1.40;;;4.70;39.70;4.00;98396.00;;;;5137059;28;20212;-76
2022/03/12 01:57:54;;;;;;;3.17;2.23;;;4.70;39.70;4.00;98422.00;;;;5137120;28;20272;-76
2022/03/12 02:00:26;;;;;;;1.43;1.33;;;4.70;40.30;3.90;98413.00;;;;5136368;27;20659;-76
2022/03/12 02:02:54;;;;;;;2.63;2.30;;;4.70;40.00;3.80;98409.00;;;;5136900;28;20318;-76
2022/03/12 02:05:25;;;;;;;7.23;2.13;;;4.60;40.40;3.90;98419.00;;;;5136981;28;20274;-76
2022/03/12 02:07:52;;;;;;;2.10;2.00;;;4.70;41.30;3.90;98405.00;;;;5136990;28;20197;-76
2022/03/12 02:10:20;;;;;;;3.50;1.80;;;4.70;41.70;3.80;98417.00;;;;5136890;28;20509;-76
2022/03/12 02:12:47;;;;;;;3.00;2.50;;;4.60;41.70;3.70;98417.00;;;;5136794;28;20269;-76
2022/03/12 02:15:17;;;;;;;2.23;2.03;;;4.50;42.80;3.90;98421.00;;;;5118543;28;20285;-76
2022/03/12 02:17:44;;;;;;;1.83;1.73;;;4.60;41.60;3.90;98425.00;;;;5136832;28;20212;-75
2022/03/12 02:20:10;;;;;;;2.00;1.90;;;4.60;40.80;3.90;98422.00;;;;5118942;28;20208;-76
2022/03/12 02:22:38;;;;;;;1.37;1.33;;;4.70;40.20;4.00;98428.00;;;;5136681;28;20248;-76
2022/03/12 02:25:09;;;;;;;2.33;2.13;;;4.70;40.20;4.00;98428.00;;;;5136590;28;20209;-76
2022/03/12 02:27:35;;;;;;;1.63;1.53;;;4.80;39.90;3.90;98435.00;;;;5118726;28;20197;-76
2022/03/12 02:30:07;;;;;;;2.10;1.90;;;4.70;41.30;4.00;98441.00;;;;5118520;28;20201;-76
2022/03/12 02:32:34;;;;;;;2.40;1.80;;;4.70;40.80;4.10;98445.00;;;;5136480;28;20265;-76
2022/03/12 02:35:11;;;;;;;2.57;2.37;;;4.80;40.30;4.00;98438.00;;;;5136457;28;20233;-76
2022/03/12 02:37:42;;;;;;;4.77;2.30;;;4.70;40.40;3.90;98428.00;;;;5136503;28;20671;-76
2022/03/12 02:40:13;;;;;;;2.67;2.43;;;4.70;40.70;4.00;98440.00;;;;5136533;28;20250;-75
2022/03/12 02:42:40;;;;;;;1.90;1.77;;;4.70;40.20;4.00;98433.00;;;;5136372;28;20227;-76
2022/03/12 02:45:09;;;;;;;3.00;2.03;;;4.70;40.40;4.00;98432.00;;;;5136364;28;20240;-77
2022/03/12 02:47:40;;;;;;;2.00;1.90;;;4.80;39.80;4.10;98430.00;;;;5136391;28;20200;-77
2022/03/12 02:50:10;;;;;;;1.87;1.77;;;4.80;39.70;4.10;98440.00;;;;5136301;28;20624;-76
2022/03/12 02:52:41;;;;;;;1.47;1.47;;;4.80;39.50;4.10;98439.00;;;;5136102;28;20217;-77
2022/03/12 02:55:13;;;;;;;2.67;1.87;;;4.90;39.40;4.10;98436.00;;;;5136191;28;20225;-76
2022/03/12 02:57:42;;;;;;;2.03;1.90;;;4.80;39.70;4.10;98428.00;;;;5136287;28;20616;-77
2022/03/12 03:00:12;;;;;;;1.17;1.17;;;4.80;39.50;4.00;98441.00;;;;5136257;28;20224;-77
2022/03/12 03:02:39;;;;;;;2.27;2.10;;;4.80;39.50;4.00;98444.00;;;;5135958;28;20312;-77
2022/03/12 03:05:36;;;;;;;1.40;1.23;;;4.80;40.40;4.00;98443.00;;;;5136160;28;20197;-75
2022/03/12 03:08:06;;;;;;;1.43;1.27;;;4.80;39.50;4.00;98438.00;;;;5136027;28;20259;-75
2022/03/12 03:10:36;;;;;;;7.13;1.20;;;4.80;39.30;3.90;98441.00;;;;5134874;27;20284;-75
2022/03/12 03:13:31;;;;;;;1.07;1.07;;;4.70;39.30;4.10;98438.00;;;;5135880;28;20217;-75
2022/03/12 03:16:02;;;;;;;1.73;1.47;;;4.80;39.50;3.90;98446.00;;;;5135965;28;20193;-75
2022/03/12 03:18:32;;;;;;;1.10;1.10;;;4.70;39.00;4.00;98441.00;;;;5135892;28;20653;-75
2022/03/12 03:21:00;;;;;;;2.00;1.67;;;4.70;38.70;3.90;98446.00;;;;5135872;28;20224;-75
2022/03/12 03:23:31;;;;;;;1.33;1.30;;;4.70;39.10;3.90;98450.00;;;;5117862;28;20627;-75
2022/03/12 03:26:00;;;;;;;2.80;2.60;;;4.70;38.90;3.90;98454.00;;;;5135931;28;20250;-76
2022/03/12 03:28:27;;;;;;;1.30;1.20;;;4.70;38.80;3.90;98461.00;;;;5135565;28;20244;-76
2022/03/12 03:30:53;;;;;;;1.27;1.17;;;4.70;39.30;3.90;98472.00;;;;5135735;28;20632;-76
2022/03/12 03:33:24;;;;;;;0.90;0.90;;;4.70;39.30;3.90;98477.00;;;;5136003;28;20225;-76
2022/03/12 03:35:52;;;;;;;1.60;1.50;;;4.70;39.20;3.80;98474.00;;;;5136188;28;20255;-77
2022/03/12 03:38:19;;;;;;;2.03;1.93;;;4.60;38.80;3.90;98441.00;;;;5135931;28;20224;-75
2022/03/12 03:40:47;;;;;;;1.10;1.10;;;4.70;38.90;3.90;98454.00;;;;5135351;28;20228;-76
2022/03/12 03:43:21;;;;;;;1.40;1.30;;;4.70;39.10;4.00;98470.00;;;;5135904;28;20223;-76
2022/03/12 03:45:54;;;;;;;0.90;0.90;;;4.70;38.90;3.90;98458.00;;;;5117498;28;20197;-76
2022/03/12 03:48:24;;;;;;;1.50;1.40;;;4.70;38.60;3.90;98477.00;;;;5135818;28;20368;-75
2022/03/12 03:50:54;;;;;;;2.43;1.73;;;4.70;38.70;3.90;98472.00;;;;5136475;28;20276;-76
2022/03/12 03:53:26;;;;;;;1.33;1.27;;;4.70;38.90;3.90;98468.00;;;;5135888;28;20372;-76
2022/03/12 03:55:58;;;;;;;1.73;1.63;;;4.70;38.90;3.80;98456.00;;;;5135887;28;20193;-76
2022/03/12 03:58:26;;;;;;;1.17;1.17;;;4.60;39.10;3.90;98490.00;;;;5135768;28;20200;-77
2022/03/12 04:00:57;;;;;;;1.47;1.37;;;4.60;39.30;3.70;98478.00;;;;5135526;28;20528;-76
2022/03/12 04:03:24;;;;;;;2.23;2.07;;;4.60;38.50;3.80;98486.00;;;;5117678;28;20205;-76
2022/03/12 04:05:51;;;;;;;2.93;2.43;;;4.60;38.80;3.90;98478.00;;;;5135776;28;20262;-77
2022/03/12 04:08:18;;;;;;;0.93;0.93;;;4.60;38.80;3.80;98473.00;;;;5136085;28;20235;-76
2022/03/12 04:10:44;;;;;;;1.53;1.43;;;4.50;38.60;3.80;98476.00;;;;5136098;28;20229;-77
2022/03/12 04:13:15;;;;;;;1.93;1.83;;;4.50;38.60;3.70;98469.00;;;;5138041;28;20241;-76
2022/03/12 04:15:45;;;;;;;4.33;1.57;;;4.50;38.80;3.60;98478.00;;;;5118843;28;20243;-75
2022/03/12 04:18:15;;;;;;;1.83;1.73;;;4.40;38.70;3.60;98487.00;;;;5117397;28;20525;-75
2022/03/12 04:20:43;;;;;;;1.33;1.23;;;4.30;38.90;3.60;98485.00;;;;5135521;28;20188;-76
2022/03/12 04:23:13;;;;;;;1.87;1.77;;;4.40;39.20;3.60;98475.00;;;;5134861;27;20216;-76
2022/03/12 04:25:40;;;;;;;1.90;1.80;;;4.30;39.20;3.60;98477.00;;;;5135618;28;20191;-76
2022/03/12 04:28:09;;;;;;;1.40;1.30;;;4.30;38.90;3.50;98477.00;;;;5134677;28;20664;-76
2022/03/12 04:30:37;;;;;;;2.13;2.00;;;4.30;39.10;3.60;98473.00;;;;5135474;28;20189;-76
2022/03/12 04:33:06;;;;;;;1.43;1.33;;;4.30;39.20;3.50;98490.00;;;;5114108;28;20244;-76
2022/03/12 04:35:35;;;;;;;1.07;1.07;;;4.30;40.10;3.30;98498.00;;;;5114513;28;20282;-76
2022/03/12 04:38:07;;;;;;;1.73;1.63;;;4.10;41.20;3.50;98498.00;;;;5114375;28;20190;-76
2022/03/12 04:40:40;;;;;;;1.70;1.37;;;4.20;41.10;3.40;98494.00;;;;5114871;28;20277;-76
2022/03/12 04:43:09;;;;;;;1.63;1.53;;;4.10;40.20;3.30;98494.00;;;;5114724;28;20596;-76
2022/03/12 04:45:36;;;;;;;1.40;1.30;;;4.10;40.80;3.30;98457.00;;;;5114892;28;20214;-76
2022/03/12 04:48:03;;;;;;;1.77;1.67;;;4.10;41.10;3.30;98461.00;;;;5114388;28;20264;-76
2022/03/12 04:50:31;;;;;;;1.33;1.33;;;4.10;40.90;3.40;98499.00;;;;5114950;28;20289;-76
2022/03/12 04:53:01;;;;;;;2.00;1.67;;;4.10;41.20;3.30;98512.00;;;;5114511;28;20588;-76
2022/03/12 04:55:30;;;;;;;14.37;1.37;;;4.10;41.10;3.40;98502.00;;;;5114507;28;20224;-77
2022/03/12 04:57:57;;;;;;;1.73;1.63;;;4.20;41.60;3.50;98506.00;;;;5099593;28;20201;-77
2022/03/12 05:00:26;;;;;;;2.37;2.17;;;4.20;41.10;3.30;98503.00;;;;5126111;28;20254;-75
2022/03/12 05:02:55;;;;;;;2.90;2.37;;;4.20;41.50;3.50;98504.00;;;;5126096;28;20485;-77
2022/03/12 05:05:22;;;;;;;2.97;2.77;;;4.20;41.30;3.60;98510.00;;;;5108349;28;20239;-77
2022/03/12 05:07:50;;;;;;;1.90;1.80;;;4.20;40.50;3.50;98521.00;;;;5129487;28;20222;-76
2022/03/12 05:10:18;;;;;;;0.87;0.87;;;4.30;40.60;3.40;98530.00;;;;5097856;28;20308;-77
2022/03/12 05:12:45;;;;;;;0.90;0.90;;;4.20;39.90;3.30;98537.00;;;;5118377;28;20782;-76
2022/03/12 05:15:15;;;;;;;4.47;2.47;;;4.20;40.10;3.40;98544.00;;;;5115262;28;20831;-77
2022/03/12 05:17:47;;;;;;;1.07;1.07;;;4.20;39.90;3.20;98544.00;;;;5097334;28;20202;-76
2022/03/12 05:20:22;;;;;;;1.37;1.37;;;4.10;39.80;3.40;98541.00;;;;5114613;28;20395;-76
2022/03/12 05:22:50;;;;;;;1.67;1.33;;;4.20;39.80;3.40;98540.00;;;;5114589;28;20200;-76
2022/03/12 05:25:18;;;;;;;1.53;1.43;;;4.20;40.20;3.50;98551.00;;;;5096421;28;20539;-76
2022/03/12 05:27:45;;;;;;;3.10;2.60;;;4.30;39.60;3.50;98561.00;;;;5123731;28;20241;-76
2022/03/12 05:30:12;;;;;;;1.37;1.37;;;4.30;39.60;3.40;98555.00;;;;5124971;28;20212;-76
2022/03/12 05:32:39;;;;;;;1.40;1.40;;;4.30;40.80;3.40;98563.00;;;;5124431;28;20214;-76
2022/03/12 05:35:07;;;;;;;2.23;2.13;;;4.20;42.20;3.40;98564.00;;;;5128243;28;20233;-78
2022/03/12 05:37:36;;;;;;;2.50;2.30;;;4.20;42.80;3.30;98556.00;;;;5122466;28;20202;-77
2022/03/12 05:40:07;;;;;;;2.33;2.00;;;4.20;43.40;3.40;98569.00;;;;5118123;28;20205;-78
2022/03/12 05:42:37;;;;;;;2.00;1.83;;;4.10;43.50;3.40;98563.00;;;;5118117;28;20653;-76
2022/03/12 05:45:09;;;;;;;1.60;1.50;;;4.20;43.40;3.40;98566.00;;;;5099525;28;20671;-78
2022/03/12 05:47:40;;;;;;;1.40;1.40;;;4.10;43.20;3.30;98570.00;;;;5117095;28;20222;-79
2022/03/12 05:50:09;;;;;;;2.17;2.03;;;4.10;43.90;3.40;98569.00;;;;5117105;28;20262;-78
2022/03/12 05:52:36;;;;;;;1.67;1.57;;;4.10;43.80;3.30;98577.00;;;;5098946;28;20229;-76
2022/03/12 05:55:05;;;;;;;3.40;2.67;;;4.10;43.60;3.30;98568.00;;;;5116713;28;20225;-76
2022/03/12 05:57:32;;;;;;;2.30;2.10;;;4.10;43.50;3.30;98577.00;;;;5116906;28;20280;-77
2022/03/12 06:00:01;;;;;;;1.57;1.47;;;4.10;44.20;3.30;98573.00;;;;5116731;28;20693;-76
2022/03/12 06:02:28;;;;;;;2.60;2.37;;;4.10;44.70;3.20;98562.00;;;;5116537;28;20205;-76
2022/03/12 06:04:57;;;;;;;2.20;2.10;;;4.00;42.90;3.20;98587.00;;;;5116340;28;20281;-74
2022/03/12 06:07:26;;;;;;;1.50;1.50;;;4.00;42.60;3.20;98582.00;;;;5116355;28;20241;-75
2022/03/12 06:09:52;;;;;;;2.33;1.83;;;4.00;42.40;3.20;98575.00;;;;5116475;28;20196;-75
2022/03/12 06:12:26;;;;;;;1.60;1.50;;;4.00;42.20;3.30;98581.00;;;;5116294;28;20266;-74
2022/03/12 06:14:56;;;;;;;1.27;1.23;;;4.00;42.10;3.30;98586.00;;;;5116399;28;20228;-75
2022/03/12 06:17:24;;;;;;;2.40;2.20;;;4.10;42.50;3.20;98594.00;;;;5116374;28;20248;-75
2022/03/12 06:19:51;;;;;;;1.83;1.73;;;4.00;42.90;3.20;98593.00;;;;5116411;28;20251;-75
2022/03/12 06:22:18;;;;;;;1.93;1.83;;;4.00;42.20;3.20;98591.00;;;;5116180;28;20193;-75
2022/03/12 06:24:45;;;;;;;1.77;1.67;;;4.00;42.20;3.20;98587.00;;;;5098377;28;20650;-75
2022/03/12 06:27:12;;;;;;;1.30;1.20;;;4.00;42.10;3.30;98592.00;;;;5116004;28;20545;-75
2022/03/12 06:29:39;;;;;;;3.43;2.07;;;4.00;42.60;3.20;98601.00;;;;5116183;28;20209;-75
2022/03/12 06:32:07;;;;;;;1.97;1.87;;;4.10;42.90;3.40;98592.00;;;;5098299;28;20218;-75
2022/03/12 06:34:35;;;;;;;2.60;2.40;;;4.10;42.40;3.50;98590.00;;;;5115998;28;20226;-75
2022/03/12 06:37:02;;;;;;;2.30;1.80;;;4.20;41.70;3.60;98587.00;;;;5115989;28;20194;-75
2022/03/12 06:39:29;;;;;;;2.87;1.63;;;4.30;41.60;3.50;98587.00;;;;5116050;28;20283;-75
2022/03/12 06:41:59;;;;;;;1.20;1.20;;;4.30;42.30;3.70;98594.00;;;;5116090;28;20194;-76
2022/03/12 06:44:32;;;;;;;2.30;1.73;;;4.30;41.60;3.70;98589.00;;;;5115773;28;20222;-75
2022/03/12 06:47:01;;;;;;;0.90;0.90;;;4.40;41.60;3.70;98599.00;;;;5115942;28;20240;-77
2022/03/12 06:49:28;;;;;;;1.30;1.30;;;4.40;41.30;3.90;98582.00;;;;5115786;28;20205;-75
2022/03/12 06:51:55;;;;;;;1.33;1.10;;;4.60;42.20;4.00;98605.00;;;;5097898;28;20671;-75
2022/03/12 06:54:22;;;;;;;0.87;0.87;;;4.70;41.60;4.10;98603.00;;;;5115591;28;20736;-75
2022/03/12 06:56:51;;;;;;;1.57;1.47;;;4.70;41.50;4.10;98596.00;;;;5115844;28;20202;-75
2022/03/12 06:59:18;;;;;;;1.10;1.10;;;4.80;41.20;4.10;98613.00;;;;5097958;28;20194;-75
2022/03/12 07:01:44;;;;;;;1.67;1.57;;;4.80;40.60;4.10;98605.00;;;;5097696;28;20206;-76
2022/03/12 07:04:13;;;;;;;3.70;2.30;;;4.80;41.40;4.10;98617.00;;;;5115604;28;20213;-76
2022/03/12 07:06:39;;;;;;;1.20;1.17;;;4.80;41.60;4.20;98604.00;;;;5115349;28;20222;-75
2022/03/12 07:09:06;;;;;;;1.77;1.67;;;5.00;41.10;4.30;98602.00;;;;5115380;28;20645;-75
2022/03/12 07:11:35;;;;;;;1.03;1.03;;;5.00;42.40;4.30;98619.00;;;;5115368;28;20225;-75
2022/03/12 07:14:01;;;;;;;1.83;1.73;;;5.00;41.10;4.30;98614.00;;;;5115347;28;20684;-75
2022/03/12 07:16:28;;;;;;;0.80;0.80;;;5.10;40.70;4.40;98618.00;;;;5115373;28;20516;-75
2022/03/12 07:18:56;;;;;;;1.93;1.83;;;5.10;40.80;4.50;98605.00;;;;5097516;28;20197;-76
2022/03/12 07:21:24;;;;;;;1.83;1.73;;;5.20;41.30;4.50;98612.00;;;;5115249;28;20659;-75
2022/03/12 07:23:50;;;;;;;1.70;1.17;;;5.30;40.70;4.70;98607.00;;;;5115211;28;20569;-75
2022/03/12 07:26:17;;;;;;;17.57;1.73;;;5.40;40.10;4.70;98614.00;;;;5115272;28;20233;-76
2022/03/12 07:28:44;;;;;;;2.23;1.90;;;5.40;39.70;4.70;98622.00;;;;5115244;28;20228;-76
2022/03/12 07:31:11;;;;;;;2.97;1.73;;;5.50;39.60;4.80;98612.00;;;;5115265;28;20221;-75
2022/03/12 07:33:37;;;;;;;0.80;0.80;;;5.50;38.80;4.90;98615.00;;;;5115148;28;20227;-75
2022/03/12 07:36:06;;;;;;;13.97;1.90;;;5.60;38.10;4.90;98607.00;;;;5097176;28;20209;-75
2022/03/12 07:38:34;;;;;;;0.97;0.87;;;5.60;38.30;5.00;98609.00;;;;5115292;28;20225;-76
2022/03/12 07:41:01;;;;;;;5.10;2.17;;;5.70;37.70;4.90;98614.00;;;;5114896;28;20199;-76
2022/03/12 07:43:28;;;;;;;1.17;1.17;;;5.80;37.40;5.20;98610.00;;;;5115020;28;20198;-77
2022/03/12 07:45:57;;;;;;;1.40;1.30;;;5.80;36.90;5.30;98614.00;;;;5114770;28;20250;-76
2022/03/12 07:48:24;;;;;;;4.33;2.50;;;5.90;36.50;5.30;98607.00;;;;5114809;28;20213;-76
2022/03/12 07:50:51;;;;;;;3.13;1.63;;;6.00;36.50;5.30;98610.00;;;;5114691;28;20213;-76
2022/03/12 07:53:17;;;;;;;1.37;1.27;;;6.00;36.90;5.50;98617.00;;;;5115063;28;20218;-77
2022/03/12 07:55:44;;;;;;;2.83;2.67;;;6.20;36.10;5.60;98620.00;;;;5114657;28;20201;-76
2022/03/12 07:58:11;;;;;;;5.60;1.77;;;6.30;35.80;5.60;98613.00;;;;5114116;28;20660;-76
2022/03/12 08:00:37;;;;;;;2.00;1.63;;;6.30;36.10;5.70;98616.00;;;;5097128;28;20202;-76
2022/03/12 08:03:07;;;;;;;2.93;2.37;;;6.40;35.40;5.80;98610.00;;;;5096535;28;20212;-75
2022/03/12 08:05:36;;;;;;;3.23;1.97;;;6.50;35.20;5.90;98614.00;;;;5114750;28;20219;-78
2022/03/12 08:08:04;;;;;;;3.27;2.00;;;6.50;35.10;5.90;98608.00;;;;5097296;28;20226;-77
2022/03/12 08:11:24;;;;;;;2.07;1.87;;;6.60;34.60;6.00;98605.00;;;;5114653;28;20206;-76
2022/03/12 08:13:21;;;;;;;1.40;1.30;;;6.70;33.80;6.10;98607.00;;;;5096402;28;20230;-76
2022/03/12 08:15:49;;;;;;;1.60;1.50;;;6.80;34.00;6.20;98606.00;;;;5114398;28;20199;-77
2022/03/12 08:18:16;;;;;;;1.60;1.50;;;6.90;34.00;6.30;98609.00;;;;5096324;28;20237;-77
2022/03/12 08:20:44;;;;;;;1.20;1.20;;;7.00;34.50;6.40;98601.00;;;;5096466;28;20201;-77
2022/03/12 08:23:14;;;;;;;2.07;1.97;;;7.10;34.20;6.40;98610.00;;;;5114530;28;20485;-76
2022/03/12 08:25:40;;;;;;;2.27;2.07;;;7.10;34.90;6.40;98609.00;;;;5114381;28;20285;-75
2022/03/12 08:28:07;;;;;;;1.00;1.00;;;7.20;35.00;6.70;98614.00;;;;5114167;28;20241;-76
2022/03/12 08:30:35;;;;;;;2.10;1.90;;;7.30;34.50;6.70;98609.00;;;;5114069;28;20246;-76
2022/03/12 08:33:03;;;;;;;2.63;2.40;;;7.40;34.20;6.90;98607.00;;;;5114165;28;20224;-76
2022/03/12 08:35:30;;;;;;;1.23;1.23;;;7.50;33.90;7.10;98619.00;;;;5096299;28;20232;-76
2022/03/12 08:37:56;;;;;;;2.87;2.60;;;7.60;33.20;7.20;98621.00;;;;5114016;28;20190;-76
2022/03/12 08:40:25;;;;;;;1.70;1.60;;;7.80;33.50;7.10;98610.00;;;;5113910;28;20222;-76
2022/03/12 08:42:55;;;;;;;3.07;2.00;;;7.70;33.60;7.10;98622.00;;;;5114115;28;20652;-76
2022/03/12 08:45:21;;;;;;;3.20;1.77;;;7.80;32.90;7.30;98624.00;;;;5113890;28;20576;-75
2022/03/12 08:47:49;;;;;;;9.57;2.73;;;7.90;32.80;7.40;98618.00;;;;5114218;28;20205;-75
2022/03/12 08:50:16;;;;;;;2.07;1.93;;;8.00;32.60;7.50;98601.00;;;;5114045;28;20278;-75
2022/03/12 08:52:43;;;;;;;1.67;1.57;;;8.10;32.00;7.50;98619.00;;;;5114224;28;20234;-75
2022/03/12 08:55:12;;;;;;;0.90;0.90;;;8.20;32.10;7.80;98628.00;;;;5114395;28;20652;-75
2022/03/12 08:57:41;;;;;;;1.80;1.63;;;8.30;32.00;7.70;98626.00;;;;5095974;28;20248;-76
2022/03/12 09:00:12;;;;;;;2.00;1.87;;;8.40;31.80;7.90;98627.00;;;;5113905;28;20211;-75
2022/03/12 09:02:40;;;;;;;1.17;1.17;;;8.50;31.30;8.00;98623.00;;;;5113893;28;20205;-76
2022/03/12 09:05:12;;;;;;;1.83;1.73;;;8.60;31.50;8.10;98625.00;;;;5096445;28;20203;-76
2022/03/12 09:07:40;;;;;;;1.37;1.27;;;8.70;31.10;8.10;98625.00;;;;5114316;28;20193;-76
2022/03/12 09:10:12;;;;;;;1.70;1.60;;;8.80;30.90;8.20;98625.00;;;;5099535;28;20602;-76
2022/03/12 09:12:39;;;;;;;1.30;1.23;;;8.80;31.20;8.40;98630.00;;;;5117409;28;20746;-75
2022/03/12 09:15:08;;;;;;;1.77;1.67;;;8.90;30.90;8.50;98612.00;;;;5117502;28;20228;-75
2022/03/12 09:17:35;;;;;;;1.50;1.40;;;9.10;30.50;8.50;98617.00;;;;5117427;28;20296;-75
2022/03/12 09:20:07;;;;;;;3.50;3.20;;;9.10;30.70;8.60;98622.00;;;;5117117;28;20308;-75
2022/03/12 09:22:34;;;;;;;2.10;2.00;;;9.20;30.10;8.70;98626.00;;;;5117254;28;20228;-75
2022/03/12 09:25:02;;;;;;;2.43;2.23;;;9.30;29.90;8.90;98625.00;;;;5117113;28;20202;-75
2022/03/12 09:27:28;;;;;;;2.50;2.37;;;9.40;30.00;8.80;98627.00;;;;5117147;28;20197;-76
2022/03/12 09:29:55;;;;;;;2.67;1.40;;;9.50;30.00;9.00;98633.00;;;;5117066;28;20451;-75
2022/03/12 09:32:22;;;;;;;2.00;1.90;;;9.60;29.50;9.00;98632.00;;;;5098917;28;20312;-74
2022/03/12 09:34:49;;;;;;;5.40;3.10;;;9.70;29.30;9.30;98625.00;;;;5117032;28;20202;-75
2022/03/12 09:37:16;;;;;;;2.93;2.10;;;9.80;28.60;9.40;98633.00;;;;5117012;28;20225;-75
2022/03/12 09:39:45;;;;;;;1.57;1.47;;;10.00;28.90;9.50;98640.00;;;;5117218;28;20201;-75
2022/03/12 09:42:11;;;;;;;1.60;1.50;;;10.00;28.60;9.40;98632.00;;;;5116900;28;20233;-75
2022/03/12 09:44:38;;;;;;;2.30;1.93;;;10.00;28.80;9.50;98633.00;;;;5099185;28;20272;-74
2022/03/12 09:47:06;;;;;;;4.93;2.43;;;10.10;28.70;9.50;98625.00;;;;5117077;28;20197;-75
2022/03/12 09:49:36;;;;;;;2.63;2.47;;;10.20;28.50;9.60;98626.00;;;;5098996;28;20232;-76
2022/03/12 09:52:05;;;;;;;1.33;1.33;;;10.20;28.70;9.80;98616.00;;;;5116800;28;20285;-76
2022/03/12 09:54:32;;;;;;;2.07;1.97;;;10.40;28.60;10.00;98616.00;;;;5098674;28;20633;-78
2022/03/12 09:56:58;;;;;;;6.23;2.70;;;10.50;28.30;10.00;98619.00;;;;5116776;28;20309;-77
2022/03/12 09:59:25;;;;;;;3.20;1.73;;;10.60;28.10;10.20;98610.00;;;;5098969;28;20833;-76
2022/03/12 10:01:53;;;;;;;2.63;2.43;;;10.70;28.30;10.30;98614.00;;;;5116879;28;20206;-76
2022/03/12 10:04:19;;;;;;;1.50;1.40;;;10.80;28.10;10.40;98615.00;;;;5117319;28;20238;-77
2022/03/12 10:06:47;;;;;;;2.77;2.07;;;11.00;27.70;10.60;98615.00;;;;5124952;28;20212;-76
2022/03/12 10:09:14;;;;;;;1.93;1.83;;;11.10;27.40;10.60;98607.00;;;;5134173;28;20197;-76
2022/03/12 10:11:41;;;;;;;1.70;1.60;;;11.20;26.80;10.80;98611.00;;;;5115815;28;20205;-76
2022/03/12 10:14:08;;;;;;;2.27;2.07;;;11.40;26.70;10.70;98619.00;;;;5124022;28;20218;-75
2022/03/12 10:16:35;;;;;;;2.10;2.00;;;11.40;26.30;11.00;98606.00;;;;5119284;28;20236;-77
2022/03/12 10:19:02;;;;;;;24.33;2.50;;;11.50;26.90;11.20;98612.00;;;;5119478;28;20637;-76
2022/03/12 10:21:32;;;;;;;3.03;2.83;;;11.70;26.50;11.50;98614.00;;;;5119729;28;20225;-77
2022/03/12 10:23:59;;;;;;;1.47;1.40;;;11.90;26.00;11.60;98611.00;;;;5122407;28;20201;-77
2022/03/12 10:26:26;;;;;;;2.90;2.70;;;12.10;25.60;11.80;98606.00;;;;5124304;28;20302;-77
2022/03/12 10:28:53;;;;;;;2.17;1.97;;;12.30;25.50;11.90;98606.00;;;;5125835;28;20267;-76
2022/03/12 10:31:19;;;;;;;2.63;2.43;;;12.40;25.80;12.10;98595.00;;;;5119489;28;20291;-76
2022/03/12 10:33:48;;;;;;;10.33;3.17;;;12.60;26.10;12.30;98599.00;;;;5116456;28;20531;-76
2022/03/12 10:36:17;;;;;;;2.43;2.23;;;12.80;25.50;12.40;98596.00;;;;5116233;28;20336;-76
2022/03/12 10:38:46;;;;;;;3.53;2.93;;;12.90;25.40;12.60;98587.00;;;;5115999;28;20277;-76
2022/03/12 10:41:17;;;;;;;8.93;2.20;;;13.00;25.60;12.60;98587.00;;;;5116161;28;20230;-76
2022/03/12 10:43:49;;;;;;;4.10;2.47;;;13.20;25.90;12.80;98580.00;;;;5116034;28;20669;-76
2022/03/12 10:46:21;;;;;;;2.77;2.07;;;13.30;25.30;12.80;98597.00;;;;5115878;28;20194;-76
2022/03/12 10:48:52;;;;;;;6.10;3.07;;;13.40;26.10;13.10;98581.00;;;;5115844;28;20233;-77
2022/03/12 10:51:19;;;;;;;1.70;1.60;;;13.60;25.40;13.20;98593.00;;;;5098413;28;20329;-76
2022/03/12 10:53:48;;;;;;;2.43;2.33;;;13.70;25.30;13.30;98586.00;;;;5115926;28;20301;-76
2022/03/12 10:56:15;;;;;;;5.97;2.33;;;13.80;24.60;13.40;98592.00;;;;5098368;28;20572;-76
2022/03/12 10:58:41;;;;;;;1.50;1.40;;;13.90;24.60;13.50;98585.00;;;;5116078;28;20194;-76
2022/03/12 11:01:08;;;;;;;2.37;2.17;;;14.00;24.50;13.60;98577.00;;;;5115667;28;20221;-76
2022/03/12 11:03:37;;;;;;;2.27;2.07;;;14.10;24.90;13.70;98574.00;;;;5115835;28;20198;-76
2022/03/12 11:06:06;;;;;;;2.77;2.47;;;14.20;25.10;13.90;98564.00;;;;5115410;28;20232;-76
2022/03/12 11:08:34;;;;;;;2.77;2.57;;;14.40;24.90;13.90;98585.00;;;;5115500;28;20209;-76
2022/03/12 11:11:11;;;;;;;2.13;2.03;;;14.40;24.60;14.10;98575.00;;;;5115260;28;20194;-75
2022/03/12 11:13:40;;;;;;;2.27;2.17;;;14.60;24.90;14.20;98569.00;;;;5115368;28;20221;-76